Trine Charlotte — LMRY — position and weather

sailwx.info

Track history (hours):
 
Tides and Currents Weather Stations Pressure Air Temp Water Temp Dewpoint Dewpoint Depression Visibility Wind Speed Wind Dir Waves Ship Positions

Trine Charlotte

Last reported at 2016-Dec-10 19:13 UTC. Time now 2016-Dec-11 09:56 UTC.
Position N 67°32' E 014°30'.

Length 66 m; draft 5 m.

Type: Cargo ship. MMSI: 257233000.

Date/timePositionNaut miles runAvg speedWind from/ knotsBaromVisibWave heightAir tempDewpointWater temp
2016-Dec-10 19:13N 67°32' E 014°30'5 7.9
2016-Dec-10 18:33N 67°27' E 014°28'9 8.5
2016-Dec-10 17:33N 67°19' E 014°18'5 4.7
2016-Dec-10 16:33N 67°15' E 014°24'8 7.5
2016-Dec-10 15:33N 67°14' E 014°44'7 7.3
2016-Dec-10 14:33N 67°15' E 015°02'8 7.9
2016-Dec-10 13:33N 67°14' E 015°22'1 1.0
2016-Dec-10 12:33N 67°15' E 015°25'0 0.0
2016-Dec-10 11:33N 67°15' E 015°25'0 0.0
2016-Dec-10 10:34N 67°15' E 015°25'0 0.0
2016-Dec-10 09:33N 67°15' E 015°25'0 0.0
2016-Dec-10 08:34N 67°15' E 015°25'0 0.0
2016-Dec-10 07:33N 67°15' E 015°25'0 0.0
2016-Dec-10 06:34N 67°15' E 015°25'0 0.0
2016-Dec-10 05:33N 67°15' E 015°25'0 0.0
2016-Dec-10 04:33N 67°15' E 015°25'0 0.0
2016-Dec-10 03:33N 67°15' E 015°25'0 0.0
2016-Dec-10 02:34N 67°15' E 015°25'0 0.0
2016-Dec-10 01:33N 67°15' E 015°25'0 0.0
2016-Dec-10 00:33N 67°15' E 015°25'0 0.0
2016-Dec-09 23:34N 67°15' E 015°25'5 5.3
2016-Dec-09 22:34N 67°14' E 015°11'8 8.1
2016-Dec-09 21:33N 67°15' E 014°50'6 6.2
2016-Dec-09 20:33N 67°15' E 014°34'1 1.0
2016-Dec-09 19:33N 67°15' E 014°32'6 5.8
2016-Dec-09 18:33N 67°13' E 014°18'7 6.8
2016-Dec-09 17:33N 67°09' E 014°03'7 7.4
2016-Dec-09 16:34N 67°03' E 013°52'8 7.6
2016-Dec-09 15:34N 66°59' E 013°36'6 6.4
2016-Dec-09 14:33N 66°54' E 013°26'7 6.7
2016-Dec-09 13:33N 66°49' E 013°15'20 6.8
2016-Dec-09 10:33N 66°29' E 012°59'8 7.8
2016-Dec-09 09:31N 66°21' E 012°57'10 2.2
2016-Dec-09 05:10N 66°12' E 012°52'3 5.0
2016-Dec-09 04:28N 66°09' E 012°50'10 0.4
2016-Dec-08 01:33N 66°18' E 012°56'10 9.0
2016-Dec-08 00:29N 66°28' E 012°59'43 8.5
2016-Dec-07 19:27N 67°05' E 013°55'8 8.6
2016-Dec-07 18:34N 67°11' E 014°04'7 7.3
2016-Dec-07 17:33N 67°17' E 014°15'9 8.9
2016-Dec-07 16:33N 67°25' E 014°27'119 8.5
2016-Dec-07 02:32N 69°05' E 017°22'8 8.5
2016-Dec-07 01:34N 69°08' E 017°43'7 7.3
2016-Dec-07 00:34N 69°13' E 017°59'  
2016-Dec-04 18:33N 69°19' E 017°58'8 8.0
2016-Dec-04 17:33N 69°11' E 017°59'9 9.0
2016-Dec-04 16:33N 69°07' E 017°36'9 8.5
2016-Dec-04 15:32N 69°01' E 017°18'22 2.4
2016-Dec-04 06:32N 68°44' E 016°42'91 9.1
2016-Dec-03 20:33N 67°28' E 014°28'8 8.1
2016-Dec-03 19:34N 67°21' E 014°23'4 4.3
2016-Dec-03 18:33N 67°16' E 014°21'0 0.0
2016-Dec-03 17:33N 67°16' E 014°21'0 0.0
2016-Dec-03 16:33N 67°16' E 014°21'0 0.0
2016-Dec-03 15:33N 67°16' E 014°21'0 0.0
2016-Dec-03 14:33N 67°16' E 014°21'2 2.4
2016-Dec-03 13:34N 67°15' E 014°15'9 8.5
2016-Dec-03 12:34N 67°08' E 014°02'9 8.9
2016-Dec-03 11:33N 67°02' E 013°46'9 8.6
2016-Dec-03 10:28N 66°55' E 013°29'8 8.9
2016-Dec-03 09:33N 66°49' E 013°16'20 8.6
2016-Dec-03 07:16N 66°31' E 012°58'7 9.1
2016-Dec-03 06:32N 66°24' E 012°59'33 4.1
2016-Dec-02 22:33N 66°55' E 013°28'5 5.2
2016-Dec-02 21:33N 66°59' E 013°35'6 5.4
2016-Dec-02 20:27N 66°54' E 013°26'16 8.4
2016-Dec-02 18:33N 67°05' E 013°56'9 9.3
2016-Dec-02 17:33N 67°13' E 014°09'6 5.7
2016-Dec-02 16:33N 67°16' E 014°21'0 0.0
2016-Dec-02 15:34N 67°16' E 014°21'0 0.0
2016-Dec-02 14:33N 67°16' E 014°21'0 0.0
2016-Dec-02 13:33N 67°16' E 014°21'0 0.0
2016-Dec-02 12:33N 67°16' E 014°21'0 0.0
2016-Dec-02 11:34N 67°16' E 014°21'0 0.0
2016-Dec-02 10:33N 67°16' E 014°21'2 1.7
2016-Dec-02 09:33N 67°15' E 014°18'8 8.1
2016-Dec-02 08:33N 67°13' E 014°39'7 7.3
2016-Dec-02 07:33N 67°16' E 014°56'0 0.4
2016-Dec-02 06:33N 67°16' E 014°57'0 0.3
2016-Dec-02 05:33N 67°16' E 014°58'0 0.2
2016-Dec-02 04:33N 67°16' E 014°58'9190.9
2016-Dec-02 03:33N 66°04' E 012°38'5 4.8
2016-Dec-02 02:32N 66°07' E 012°47'5 5.1
2016-Dec-02 01:32N 66°09' E 012°58'8282.0
2016-Dec-02 00:32N 67°15' E 015°04'6 6.2
2016-Dec-01 23:32N 67°14' E 015°20'6 6.6
2016-Dec-01 22:33N 67°15' E 015°04'8 8.2
2016-Dec-01 21:33N 67°15' E 015°25'0 0.0
2016-Dec-01 20:33N 67°15' E 015°25'0 0.0
2016-Dec-01 19:33N 67°15' E 015°25'0 0.0
2016-Dec-01 18:33N 67°15' E 015°25'0 0.0
2016-Dec-01 17:33N 67°15' E 015°25'2 1.6
2016-Dec-01 16:33N 67°14' E 015°21'8 8.2
2016-Dec-01 15:33N 67°16' E 015°00'8 8.4
2016-Dec-01 14:33N 67°13' E 014°39'4 4.1
2016-Dec-01 13:33N 67°15' E 014°29'5 5.1
2016-Dec-01 12:33N 67°13' E 014°17'7 6.7
2016-Dec-01 11:33N 67°09' E 014°02'9 8.7
2016-Dec-01 10:31N 67°02' E 013°48'8 8.1
2016-Dec-01 09:33N 66°58' E 013°31'8 7.4
2016-Dec-01 08:30N 66°51' E 013°20'1717.8
2016-Dec-01 07:32N 66°35' E 013°04'6 6.2
2016-Dec-01 06:32N 66°41' E 013°09'6 6.3
2016-Dec-01 05:33N 66°47' E 013°14'6 6.0
2016-Dec-01 04:31N 66°53' E 013°22'5 5.3
2016-Dec-01 03:33N 66°57' E 013°29'5 5.3
2016-Dec-01 02:33N 67°00' E 013°40'5 5.1
2016-Dec-01 01:33N 67°03' E 013°51'6 5.8
2016-Dec-01 00:33N 67°07' E 014°00'6 5.9
2016-Nov-30 23:33N 67°12' E 014°09'6 5.6
2016-Nov-30 22:33N 67°16' E 014°19'1 0.6
2016-Nov-30 21:34N 67°16' E 014°21'0 0.0
2016-Nov-30 20:32N 67°16' E 014°21'0 0.0
2016-Nov-30 19:33N 67°16' E 014°21'  
Track history (hours):
 
Tides and Currents Weather Stations Pressure Air Temp Water Temp Dewpoint Dewpoint Depression Visibility Wind Speed Wind Dir Waves Ship Positions

Trine Charlotte

Last reported at 2016-Dec-10 19:13 UTC. Time now 2016-Dec-11 09:56 UTC.
Position N 67°32' E 014°30'.

Length 66 m; draft 5 m.

Type: Cargo ship. MMSI: 257233000.

Date/timePositionNaut miles runAvg speedWind from/ knotsBaromVisibWave heightAir tempDewpointWater temp
2016-Dec-10 19:13N 67°32' E 014°30'5 7.9
2016-Dec-10 18:33N 67°27' E 014°28'9 8.5
2016-Dec-10 17:33N 67°19' E 014°18'5 4.7
2016-Dec-10 16:33N 67°15' E 014°24'8 7.5
2016-Dec-10 15:33N 67°14' E 014°44'7 7.3
2016-Dec-10 14:33N 67°15' E 015°02'8 7.9
2016-Dec-10 13:33N 67°14' E 015°22'1 1.0
2016-Dec-10 12:33N 67°15' E 015°25'0 0.0
2016-Dec-10 11:33N 67°15' E 015°25'0 0.0
2016-Dec-10 10:34N 67°15' E 015°25'0 0.0
2016-Dec-10 09:33N 67°15' E 015°25'0 0.0
2016-Dec-10 08:34N 67°15' E 015°25'0 0.0
2016-Dec-10 07:33N 67°15' E 015°25'0 0.0
2016-Dec-10 06:34N 67°15' E 015°25'0 0.0
2016-Dec-10 05:33N 67°15' E 015°25'0 0.0
2016-Dec-10 04:33N 67°15' E 015°25'0 0.0
2016-Dec-10 03:33N 67°15' E 015°25'0 0.0
2016-Dec-10 02:34N 67°15' E 015°25'0 0.0
2016-Dec-10 01:33N 67°15' E 015°25'0 0.0
2016-Dec-10 00:33N 67°15' E 015°25'0 0.0
2016-Dec-09 23:34N 67°15' E 015°25'5 5.3
2016-Dec-09 22:34N 67°14' E 015°11'8 8.1
2016-Dec-09 21:33N 67°15' E 014°50'6 6.2
2016-Dec-09 20:33N 67°15' E 014°34'1 1.0
2016-Dec-09 19:33N 67°15' E 014°32'6 5.8
2016-Dec-09 18:33N 67°13' E 014°18'7 6.8
2016-Dec-09 17:33N 67°09' E 014°03'7 7.4
2016-Dec-09 16:34N 67°03' E 013°52'8 7.6
2016-Dec-09 15:34N 66°59' E 013°36'6 6.4
2016-Dec-09 14:33N 66°54' E 013°26'7 6.7
2016-Dec-09 13:33N 66°49' E 013°15'20 6.8
2016-Dec-09 10:33N 66°29' E 012°59'8 7.8
2016-Dec-09 09:31N 66°21' E 012°57'10 2.2
2016-Dec-09 05:10N 66°12' E 012°52'3 5.0
2016-Dec-09 04:28N 66°09' E 012°50'10 0.4
2016-Dec-08 01:33N 66°18' E 012°56'10 9.0
2016-Dec-08 00:29N 66°28' E 012°59'43 8.5
2016-Dec-07 19:27N 67°05' E 013°55'8 8.6
2016-Dec-07 18:34N 67°11' E 014°04'7 7.3
2016-Dec-07 17:33N 67°17' E 014°15'9 8.9
2016-Dec-07 16:33N 67°25' E 014°27'119 8.5
2016-Dec-07 02:32N 69°05' E 017°22'8 8.5
2016-Dec-07 01:34N 69°08' E 017°43'7 7.3
2016-Dec-07 00:34N 69°13' E 017°59'  
2016-Dec-04 18:33N 69°19' E 017°58'8 8.0
2016-Dec-04 17:33N 69°11' E 017°59'9 9.0
2016-Dec-04 16:33N 69°07' E 017°36'9 8.5
2016-Dec-04 15:32N 69°01' E 017°18'22 2.4
2016-Dec-04 06:32N 68°44' E 016°42'91 9.1
2016-Dec-03 20:33N 67°28' E 014°28'8 8.1
2016-Dec-03 19:34N 67°21' E 014°23'4 4.3
2016-Dec-03 18:33N 67°16' E 014°21'0 0.0
2016-Dec-03 17:33N 67°16' E 014°21'0 0.0
2016-Dec-03 16:33N 67°16' E 014°21'0 0.0
2016-Dec-03 15:33N 67°16' E 014°21'0 0.0
2016-Dec-03 14:33N 67°16' E 014°21'2 2.4
2016-Dec-03 13:34N 67°15' E 014°15'9 8.5
2016-Dec-03 12:34N 67°08' E 014°02'9 8.9
2016-Dec-03 11:33N 67°02' E 013°46'9 8.6
2016-Dec-03 10:28N 66°55' E 013°29'8 8.9
2016-Dec-03 09:33N 66°49' E 013°16'20 8.6
2016-Dec-03 07:16N 66°31' E 012°58'7 9.1
2016-Dec-03 06:32N 66°24' E 012°59'33 4.1
2016-Dec-02 22:33N 66°55' E 013°28'5 5.2
2016-Dec-02 21:33N 66°59' E 013°35'6 5.4
2016-Dec-02 20:27N 66°54' E 013°26'16 8.4
2016-Dec-02 18:33N 67°05' E 013°56'9 9.3
2016-Dec-02 17:33N 67°13' E 014°09'6 5.7
2016-Dec-02 16:33N 67°16' E 014°21'0 0.0
2016-Dec-02 15:34N 67°16' E 014°21'0 0.0
2016-Dec-02 14:33N 67°16' E 014°21'0 0.0
2016-Dec-02 13:33N 67°16' E 014°21'0 0.0
2016-Dec-02 12:33N 67°16' E 014°21'0 0.0
2016-Dec-02 11:34N 67°16' E 014°21'0 0.0
2016-Dec-02 10:33N 67°16' E 014°21'2 1.7
2016-Dec-02 09:33N 67°15' E 014°18'8 8.1
2016-Dec-02 08:33N 67°13' E 014°39'7 7.3
2016-Dec-02 07:33N 67°16' E 014°56'0 0.4
2016-Dec-02 06:33N 67°16' E 014°57'0 0.3
2016-Dec-02 05:33N 67°16' E 014°58'0 0.2
2016-Dec-02 04:33N 67°16' E 014°58'9190.9
2016-Dec-02 03:33N 66°04' E 012°38'5 4.8
2016-Dec-02 02:32N 66°07' E 012°47'5 5.1
2016-Dec-02 01:32N 66°09' E 012°58'8282.0
2016-Dec-02 00:32N 67°15' E 015°04'6 6.2
2016-Dec-01 23:32N 67°14' E 015°20'6 6.6
2016-Dec-01 22:33N 67°15' E 015°04'8 8.2
2016-Dec-01 21:33N 67°15' E 015°25'0 0.0
2016-Dec-01 20:33N 67°15' E 015°25'0 0.0
2016-Dec-01 19:33N 67°15' E 015°25'0 0.0
2016-Dec-01 18:33N 67°15' E 015°25'0 0.0
2016-Dec-01 17:33N 67°15' E 015°25'2 1.6
2016-Dec-01 16:33N 67°14' E 015°21'8 8.2
2016-Dec-01 15:33N 67°16' E 015°00'8 8.4
2016-Dec-01 14:33N 67°13' E 014°39'4 4.1
2016-Dec-01 13:33N 67°15' E 014°29'5 5.1
2016-Dec-01 12:33N 67°13' E 014°17'7 6.7
2016-Dec-01 11:33N 67°09' E 014°02'9 8.7
2016-Dec-01 10:31N 67°02' E 013°48'8 8.1
2016-Dec-01 09:33N 66°58' E 013°31'8 7.4
2016-Dec-01 08:30N 66°51' E 013°20'1717.8
2016-Dec-01 07:32N 66°35' E 013°04'6 6.2
2016-Dec-01 06:32N 66°41' E 013°09'6 6.3
2016-Dec-01 05:33N 66°47' E 013°14'6 6.0
2016-Dec-01 04:31N 66°53' E 013°22'5 5.3
2016-Dec-01 03:33N 66°57' E 013°29'5 5.3
2016-Dec-01 02:33N 67°00' E 013°40'5 5.1
2016-Dec-01 01:33N 67°03' E 013°51'6 5.8
2016-Dec-01 00:33N 67°07' E 014°00'6 5.9
2016-Nov-30 23:33N 67°12' E 014°09'6 5.6
2016-Nov-30 22:33N 67°16' E 014°19'1 0.6
2016-Nov-30 21:34N 67°16' E 014°21'0 0.0
2016-Nov-30 20:32N 67°16' E 014°21'0 0.0
2016-Nov-30 19:33N 67°16' E 014°21'  

Dump ship's entire track history